createdAt,value
2024-02-13T00:04:26.750Z,2.92
2024-02-13T00:09:30.953Z,2.94
2024-02-13T00:14:35.249Z,3.11
2024-02-13T00:19:39.320Z,3.13
2024-02-13T00:24:43.391Z,3.20
2024-02-13T00:29:47.616Z,3.27
2024-02-13T00:34:51.756Z,3.26
2024-02-13T00:39:55.971Z,3.11
2024-02-13T00:45:00.022Z,3.17
2024-02-13T00:50:04.240Z,3.28
2024-02-13T00:55:08.371Z,3.32
2024-02-13T01:00:12.939Z,3.44
2024-02-13T01:05:16.831Z,3.49
2024-02-13T01:10:20.861Z,3.58
2024-02-13T01:15:25.051Z,3.75
2024-02-13T01:20:29.176Z,3.81
2024-02-13T01:25:31.443Z,3.85
2024-02-13T01:30:35.618Z,3.80
2024-02-13T01:35:39.859Z,3.81
2024-02-13T01:40:43.959Z,3.69
2024-02-13T01:45:48.116Z,3.55
2024-02-13T01:50:52.314Z,3.45
2024-02-13T01:55:54.546Z,3.43
2024-02-13T02:00:58.771Z,3.39
2024-02-13T02:06:03.019Z,3.33
2024-02-13T02:11:07.028Z,3.26
2024-02-13T02:16:11.211Z,3.23
2024-02-13T02:21:15.383Z,3.22
2024-02-13T02:26:19.585Z,3.12
2024-02-13T02:31:23.704Z,3.15
2024-02-13T02:36:27.858Z,3.12
2024-02-13T02:41:32.029Z,3.17
2024-02-13T02:46:36.166Z,3.14
2024-02-13T02:51:40.327Z,3.10
2024-02-13T02:56:44.547Z,3.06
2024-02-13T03:01:48.680Z,3.07
2024-02-13T03:06:52.888Z,3.10
2024-02-13T03:11:57.098Z,3.10
2024-02-13T03:17:01.164Z,2.99
2024-02-13T03:22:05.311Z,2.95
2024-02-13T03:27:09.490Z,2.90
2024-02-13T03:32:13.699Z,2.93
2024-02-13T03:37:17.833Z,2.92
2024-02-13T03:42:21.993Z,2.94
2024-02-13T03:47:26.303Z,2.97
2024-02-13T03:52:30.310Z,2.94
2024-02-13T03:57:34.443Z,2.94
2024-02-13T04:02:38.680Z,2.87
2024-02-13T04:07:42.796Z,2.77
2024-02-13T04:12:46.933Z,2.72
2024-02-13T04:17:51.189Z,2.55
2024-02-13T04:22:55.316Z,2.60
2024-02-13T04:27:59.594Z,2.51
2024-02-13T04:33:03.770Z,2.63
2024-02-13T04:38:07.804Z,2.59
2024-02-13T04:43:11.944Z,2.55
2024-02-13T04:48:16.277Z,2.45
2024-02-13T04:53:20.311Z,2.43
2024-02-13T04:58:24.408Z,2.52
2024-02-13T05:03:28.580Z,2.47
2024-02-13T05:08:32.805Z,2.55
2024-02-13T05:13:36.901Z,2.61
2024-02-13T05:18:41.266Z,2.51
2024-02-13T05:23:45.292Z,2.49
2024-02-13T05:28:50.142Z,2.48
2024-02-13T05:33:53.791Z,2.49
2024-02-13T05:38:57.766Z,2.53
2024-02-13T05:44:01.880Z,2.60
2024-02-13T05:49:06.143Z,2.54
2024-02-13T05:54:10.288Z,2.55
2024-02-13T05:59:14.425Z,2.51
2024-02-13T06:04:18.557Z,2.52
2024-02-13T06:09:22.686Z,2.50
2024-02-13T06:14:26.878Z,2.60
2024-02-13T06:19:31.078Z,2.78
2024-02-13T06:24:35.229Z,2.91
2024-02-13T06:29:39.426Z,2.98
2024-02-13T06:34:43.595Z,3.08
2024-02-13T06:39:47.709Z,3.13
2024-02-13T06:44:51.930Z,3.13
2024-02-13T06:49:56.163Z,3.23
2024-02-13T06:55:00.248Z,3.33
2024-02-13T07:00:05.703Z,3.39
2024-02-13T07:05:08.525Z,3.46
2024-02-13T07:10:12.812Z,3.52
2024-02-13T07:15:16.981Z,3.57
2024-02-13T07:20:21.060Z,3.55
2024-02-13T07:25:23.297Z,3.55
2024-02-13T07:30:27.757Z,3.66
2024-02-13T07:35:31.662Z,3.75
2024-02-13T07:40:35.759Z,3.99
2024-02-13T07:45:39.948Z,4.08
2024-02-13T07:50:44.092Z,4.19
2024-02-13T07:55:48.271Z,4.29
2024-02-13T08:00:52.430Z,4.39
2024-02-13T08:05:56.715Z,4.49
2024-02-13T08:11:00.751Z,4.56
2024-02-13T08:16:04.936Z,4.62
2024-02-13T08:21:09.232Z,4.63
2024-02-13T08:26:13.245Z,4.69
2024-02-13T08:31:17.394Z,4.84
2024-02-13T08:36:21.633Z,4.97
2024-02-13T08:41:25.808Z,5.11
2024-02-13T08:46:29.887Z,5.19
2024-02-13T08:51:37.775Z,5.35
2024-02-13T08:56:38.307Z,5.40
2024-02-13T09:01:42.385Z,5.43
2024-02-13T09:06:46.741Z,5.47
2024-02-13T09:11:50.790Z,5.51
2024-02-13T09:16:54.870Z,5.62
2024-02-13T09:21:59.064Z,5.67
2024-02-13T09:27:03.283Z,5.75
2024-02-13T09:32:07.379Z,5.90
2024-02-13T09:37:11.504Z,5.92
2024-02-13T09:42:15.713Z,5.91
2024-02-13T09:47:19.868Z,6.00
2024-02-13T09:52:24.031Z,6.07
2024-02-13T09:57:28.203Z,6.12
2024-02-13T10:02:32.430Z,6.16
2024-02-13T10:07:38.702Z,6.17
2024-02-13T10:12:40.699Z,6.28
2024-02-13T10:17:44.892Z,6.14
2024-02-13T10:22:49.074Z,6.34
2024-02-13T10:27:53.196Z,6.54
2024-02-13T10:32:57.383Z,6.72
2024-02-13T10:38:01.467Z,6.68
2024-02-13T10:43:05.603Z,6.80
2024-02-13T10:48:09.859Z,6.89
2024-02-13T10:53:14.086Z,6.99
2024-02-13T10:58:24.560Z,7.08
2024-02-13T11:03:22.302Z,7.23
2024-02-13T11:08:26.622Z,7.13
2024-02-13T11:13:30.796Z,7.38
2024-02-13T11:18:34.901Z,7.33
2024-02-13T11:23:39.026Z,7.68
2024-02-13T11:28:43.122Z,8.04
2024-02-13T11:33:47.559Z,8.12
2024-02-13T11:38:51.490Z,8.27
2024-02-13T11:43:55.613Z,8.24
2024-02-13T11:48:59.914Z,7.98
2024-02-13T11:54:03.978Z,8.03
2024-02-13T11:59:08.114Z,8.16
2024-02-13T12:04:12.638Z,8.26
2024-02-13T12:09:16.532Z,8.39
2024-02-13T12:14:20.625Z,8.79
2024-02-13T12:19:24.752Z,8.85
2024-02-13T12:24:28.906Z,8.95
2024-02-13T12:29:33.099Z,8.94
2024-02-13T12:34:37.487Z,9.22
2024-02-13T12:39:41.385Z,9.31
2024-02-13T12:44:45.561Z,9.23
2024-02-13T12:49:49.837Z,8.84
2024-02-13T12:54:51.970Z,9.06
2024-02-13T12:59:57.134Z,9.38
2024-02-13T13:05:00.298Z,9.43
2024-02-13T13:10:04.460Z,9.35
2024-02-13T13:15:15.831Z,9.65
2024-02-13T13:20:12.817Z,9.57
2024-02-13T13:25:16.957Z,9.31
2024-02-13T13:30:21.501Z,9.48
2024-02-13T13:35:26.575Z,9.62
2024-02-13T13:40:29.423Z,9.57
2024-02-13T13:45:33.595Z,9.43
2024-02-13T13:50:37.837Z,9.24
2024-02-13T13:55:41.972Z,9.16
2024-02-13T14:00:46.181Z,9.12
2024-02-13T14:05:50.644Z,9.07
2024-02-13T14:10:54.396Z,9.26
2024-02-13T14:15:58.561Z,9.27
2024-02-13T14:21:02.844Z,9.21
2024-02-13T14:26:06.894Z,9.15
2024-02-13T14:31:11.058Z,9.27
2024-02-13T14:36:15.188Z,9.41
2024-02-13T14:41:19.393Z,9.45
2024-02-13T14:46:23.563Z,9.29
2024-02-13T14:51:27.848Z,9.12
2024-02-13T14:56:31.926Z,8.93
2024-02-13T15:01:35.996Z,8.84
2024-02-13T15:06:40.255Z,8.72
2024-02-13T15:11:44.347Z,8.70
2024-02-13T15:16:48.498Z,8.63
2024-02-13T15:21:52.631Z,8.59
2024-02-13T15:26:56.864Z,8.54
2024-02-13T15:32:00.995Z,8.50
2024-02-13T15:37:05.184Z,8.46
2024-02-13T15:42:09.372Z,8.40
2024-02-13T15:47:13.443Z,8.34
2024-02-13T15:52:17.638Z,8.28
2024-02-13T15:57:21.784Z,8.26
2024-02-13T16:02:26.017Z,8.19
2024-02-13T16:07:30.181Z,8.18
2024-02-13T16:12:34.316Z,8.11
2024-02-13T16:17:38.514Z,8.05
2024-02-13T16:22:42.589Z,7.99
2024-02-13T16:27:46.758Z,7.92
2024-02-13T16:32:51.040Z,7.84
2024-02-13T16:37:55.070Z,7.80
2024-02-13T16:43:00.896Z,7.72
2024-02-13T16:48:03.525Z,7.70
2024-02-13T16:53:07.590Z,7.69
2024-02-13T16:58:11.774Z,7.69
2024-02-13T17:03:15.926Z,7.77
2024-02-13T17:08:20.101Z,7.71
2024-02-13T17:13:24.202Z,7.73
2024-02-13T17:18:28.524Z,7.77
2024-02-13T17:23:32.605Z,7.80
2024-02-13T17:28:36.764Z,7.73
2024-02-13T17:33:41.221Z,7.72
2024-02-13T17:38:45.053Z,7.70
2024-02-13T17:43:49.212Z,7.64
2024-02-13T17:48:53.620Z,7.60
2024-02-13T17:53:57.557Z,7.55
2024-02-13T17:59:01.696Z,7.55
2024-02-13T18:04:05.900Z,7.50
2024-02-13T18:09:10.016Z,7.46
2024-02-13T18:14:14.213Z,7.42
2024-02-13T18:19:18.538Z,7.44
2024-02-13T18:24:20.660Z,7.45
2024-02-13T18:29:24.853Z,7.45
2024-02-13T18:34:29.004Z,7.41
2024-02-13T18:39:33.067Z,7.40
2024-02-13T18:44:37.292Z,7.36
2024-02-13T18:54:45.581Z,7.33
2024-02-13T18:59:47.939Z,7.30
2024-02-13T19:04:52.232Z,7.23
2024-02-13T19:09:56.169Z,7.19
2024-02-13T19:15:00.666Z,7.13
2024-02-13T19:20:04.512Z,7.07
2024-02-13T19:25:08.655Z,7.04
2024-02-13T19:30:12.845Z,7.02
2024-02-13T19:35:17.029Z,6.99
2024-02-13T19:40:21.127Z,6.96
2024-02-13T19:45:25.378Z,6.88
2024-02-13T19:50:29.550Z,6.91
2024-02-13T19:55:33.642Z,6.94
2024-02-13T20:00:37.835Z,6.95
2024-02-13T20:05:42.076Z,6.95
2024-02-13T20:10:46.261Z,6.97
2024-02-13T20:15:50.297Z,7.00
2024-02-13T20:20:54.523Z,7.00
2024-02-13T20:25:58.640Z,7.01
2024-02-13T20:31:02.776Z,7.08
2024-02-13T20:36:07.063Z,7.08
2024-02-13T20:41:11.130Z,7.10
2024-02-13T20:46:15.315Z,7.11
2024-02-13T20:51:19.426Z,7.14
2024-02-13T20:56:23.601Z,7.15
2024-02-13T21:01:27.790Z,7.20
2024-02-13T21:06:32.071Z,7.19
2024-02-13T21:11:36.127Z,7.14
2024-02-13T21:16:40.254Z,7.18
2024-02-13T21:21:44.462Z,7.16
2024-02-13T21:26:48.617Z,7.12
2024-02-13T21:31:52.744Z,7.16
2024-02-13T21:36:56.902Z,7.12
2024-02-13T21:42:01.164Z,7.06
2024-02-13T21:47:05.243Z,7.11
2024-02-13T21:52:09.398Z,7.05
2024-02-13T21:57:13.636Z,7.09
2024-02-13T22:02:17.688Z,7.11
2024-02-13T22:07:21.864Z,7.16
2024-02-13T22:12:26.048Z,7.23
2024-02-13T22:17:30.309Z,7.24
2024-02-13T22:27:38.533Z,7.31
2024-02-13T22:32:42.777Z,7.36
2024-02-13T22:37:46.873Z,7.39
2024-02-13T22:42:51.028Z,7.41
2024-02-13T22:47:55.277Z,7.42
2024-02-13T22:52:59.781Z,7.43
2024-02-13T22:58:03.525Z,7.50
2024-02-13T23:03:07.740Z,7.60
2024-02-13T23:08:11.802Z,7.58
2024-02-13T23:13:15.980Z,7.63
2024-02-13T23:18:20.383Z,7.62
2024-02-13T23:23:24.348Z,7.61
2024-02-13T23:33:32.940Z,7.56
2024-02-13T23:38:36.809Z,7.51
2024-02-13T23:43:40.933Z,7.49
2024-02-13T23:48:45.314Z,7.46
2024-02-13T23:53:49.278Z,7.43
2024-02-13T23:58:53.439Z,7.42
